createdAt,value
2019-02-11T00:01:12.591Z,4.20
2019-02-11T00:03:41.911Z,4.10
2019-02-11T00:06:11.894Z,4.10
2019-02-11T00:08:42.245Z,4.10
2019-02-11T00:11:10.315Z,4.10
2019-02-11T00:13:40.403Z,4.00
2019-02-11T00:16:11.826Z,4.10
2019-02-11T00:18:41.797Z,4.00
2019-02-11T00:21:10.438Z,4.00
2019-02-11T00:23:38.814Z,3.90
2019-02-11T00:26:07.119Z,3.90
2019-02-11T00:28:35.769Z,3.90
2019-02-11T00:31:04.147Z,3.80
2019-02-11T00:33:32.592Z,3.80
2019-02-11T00:36:00.968Z,3.80
2019-02-11T00:38:29.342Z,3.70
2019-02-11T00:40:57.660Z,3.70
2019-02-11T00:43:26.004Z,3.70
2019-02-11T00:45:54.368Z,3.70
2019-02-11T00:48:22.683Z,3.70
2019-02-11T00:50:50.941Z,3.70
2019-02-11T00:53:19.294Z,3.70
2019-02-11T00:55:47.584Z,3.70
2019-02-11T00:58:15.903Z,3.70
2019-02-11T01:00:44.264Z,3.70
2019-02-11T01:03:12.638Z,3.70
2019-02-11T01:05:41.043Z,3.70
2019-02-11T01:08:09.330Z,3.70
2019-02-11T01:10:37.706Z,3.60
2019-02-11T01:13:06.080Z,3.70
2019-02-11T01:15:34.455Z,3.70
2019-02-11T01:18:02.762Z,3.60
2019-02-11T01:20:31.144Z,3.60
2019-02-11T01:22:59.544Z,3.60
2019-02-11T01:25:27.831Z,3.60
2019-02-11T01:27:56.139Z,3.50
2019-02-11T01:30:24.547Z,3.50
2019-02-11T01:32:52.903Z,3.50
2019-02-11T01:35:21.196Z,3.50
2019-02-11T01:37:49.590Z,3.40
2019-02-11T01:40:17.961Z,3.40
2019-02-11T01:42:46.274Z,3.40
2019-02-11T01:45:14.650Z,3.40
2019-02-11T01:47:43.052Z,3.40
2019-02-11T01:50:12.587Z,3.40
2019-02-11T01:52:40.949Z,3.40
2019-02-11T01:55:09.337Z,3.40
2019-02-11T01:57:37.716Z,3.50
2019-02-11T02:00:11.850Z,3.50
2019-02-11T02:02:40.202Z,3.60
2019-02-11T02:05:09.398Z,3.70
2019-02-11T02:07:37.781Z,3.70
2019-02-11T02:10:09.488Z,3.80
2019-02-11T02:12:37.880Z,3.80
2019-02-11T02:15:07.760Z,3.80
2019-02-11T02:17:36.152Z,3.80
2019-02-11T02:20:07.405Z,3.80
2019-02-11T02:22:35.762Z,3.80
2019-02-11T02:25:05.582Z,3.80
2019-02-11T02:27:33.974Z,3.80
2019-02-11T02:30:02.634Z,3.70
2019-02-11T02:32:31.000Z,3.70
2019-02-11T02:34:59.377Z,3.70
2019-02-11T02:37:27.696Z,3.70
2019-02-11T02:39:56.053Z,3.70
2019-02-11T02:42:24.444Z,3.70
2019-02-11T02:44:52.810Z,3.70
2019-02-11T02:47:21.468Z,3.70
2019-02-11T02:49:50.156Z,3.70
2019-02-11T02:52:18.532Z,3.70
2019-02-11T02:54:46.932Z,3.70
2019-02-11T02:57:15.287Z,3.70
2019-02-11T02:59:43.943Z,3.60
2019-02-11T03:02:12.323Z,3.60
2019-02-11T03:04:40.708Z,3.60
2019-02-11T03:07:09.091Z,3.60
2019-02-11T03:09:37.439Z,3.60
2019-02-11T03:12:05.828Z,3.50
2019-02-11T03:14:34.206Z,3.50
2019-02-11T03:17:02.584Z,3.50
2019-02-11T03:19:30.985Z,3.40
2019-02-11T03:21:59.359Z,3.40
2019-02-11T03:24:27.645Z,3.30
2019-02-11T03:26:55.956Z,3.30
2019-02-11T03:29:24.325Z,3.30
2019-02-11T03:31:52.721Z,3.20
2019-02-11T03:34:21.000Z,3.30
2019-02-11T03:36:49.310Z,3.30
2019-02-11T03:39:17.772Z,3.30
2019-02-11T03:41:46.139Z,3.30
2019-02-11T03:44:15.397Z,3.30
2019-02-11T03:46:43.876Z,3.20
2019-02-11T03:49:12.580Z,3.10
2019-02-11T03:51:41.262Z,3.00
2019-02-11T03:54:09.640Z,3.00
2019-02-11T03:56:38.011Z,2.90
2019-02-11T03:59:06.385Z,2.80
2019-02-11T04:01:35.063Z,2.80
2019-02-11T04:04:03.468Z,2.70
2019-02-11T04:06:31.820Z,2.60
2019-02-11T04:09:00.186Z,2.50
2019-02-11T04:11:28.480Z,2.50
2019-02-11T04:13:56.876Z,2.40
2019-02-11T04:16:25.176Z,2.40
2019-02-11T04:18:53.466Z,2.30
2019-02-11T04:21:21.846Z,2.30
2019-02-11T04:23:50.215Z,2.20
2019-02-11T04:26:18.614Z,2.20
2019-02-11T04:28:46.981Z,2.20
2019-02-11T04:31:15.338Z,2.20
2019-02-11T04:33:43.711Z,2.20
2019-02-11T04:36:12.125Z,2.20
2019-02-11T04:38:40.482Z,2.20
2019-02-11T04:41:08.782Z,2.20
2019-02-11T04:43:37.079Z,2.20
2019-02-11T04:46:05.478Z,2.20
2019-02-11T04:48:33.859Z,2.20
2019-02-11T04:51:02.253Z,2.20
2019-02-11T04:53:30.540Z,2.20
2019-02-11T04:55:58.910Z,2.20
2019-02-11T04:58:27.580Z,2.20
2019-02-11T05:00:55.873Z,2.20
2019-02-11T05:03:24.260Z,2.20
2019-02-11T05:05:52.561Z,2.20
2019-02-11T05:08:20.918Z,2.20
2019-02-11T05:10:49.310Z,2.20
2019-02-11T05:13:17.671Z,2.20
2019-02-11T05:15:46.061Z,2.10
2019-02-11T05:18:16.776Z,2.10
2019-02-11T05:20:44.471Z,2.10
2019-02-11T05:23:12.787Z,2.20
2019-02-11T05:25:41.165Z,2.10
2019-02-11T05:28:09.933Z,2.20
2019-02-11T05:30:38.245Z,2.20
2019-02-11T05:33:06.669Z,2.10
2019-02-11T05:35:35.028Z,2.10
2019-02-11T05:38:03.441Z,2.10
2019-02-11T05:40:31.789Z,2.00
2019-02-11T05:43:00.156Z,2.00
2019-02-11T05:45:28.570Z,2.00
2019-02-11T05:47:56.935Z,2.00
2019-02-11T05:50:25.318Z,2.00
2019-02-11T05:52:54.032Z,2.00
2019-02-11T05:55:23.895Z,2.00
2019-02-11T05:57:52.483Z,1.90
2019-02-11T06:00:20.860Z,1.90
2019-02-11T06:02:49.552Z,1.90
2019-02-11T06:05:17.953Z,1.90
2019-02-11T06:07:46.300Z,1.90
2019-02-11T06:10:15.573Z,1.80
2019-02-11T06:12:43.936Z,1.80
2019-02-11T06:15:12.315Z,1.90
2019-02-11T06:17:40.697Z,1.90
2019-02-11T06:20:09.989Z,1.90
2019-02-11T06:22:38.705Z,1.90
2019-02-11T06:25:08.106Z,2.00
2019-02-11T06:27:36.876Z,2.00
2019-02-11T06:30:11.118Z,2.00
2019-02-11T06:32:39.495Z,2.00
2019-02-11T06:35:08.861Z,2.00
2019-02-11T06:37:37.252Z,2.00
2019-02-11T06:40:08.991Z,2.00
2019-02-11T06:42:37.513Z,1.90
2019-02-11T06:45:13.092Z,1.90
2019-02-11T06:47:38.449Z,1.90
2019-02-11T06:50:14.753Z,1.90
2019-02-11T06:52:43.027Z,1.90
2019-02-11T06:55:12.143Z,1.80
2019-02-11T06:57:40.530Z,1.90
2019-02-11T07:00:13.630Z,1.90
2019-02-11T07:02:42.010Z,2.00
2019-02-11T07:05:10.384Z,2.10
2019-02-11T07:07:38.712Z,2.20
2019-02-11T07:10:10.461Z,2.20
2019-02-11T07:12:38.816Z,2.30
2019-02-11T07:15:21.214Z,2.40
2019-02-11T07:17:43.423Z,2.40
2019-02-11T07:20:11.795Z,2.50
2019-02-11T07:22:40.147Z,2.60
2019-02-11T07:25:09.440Z,2.60
2019-02-11T07:27:37.799Z,2.50
2019-02-11T07:30:11.549Z,2.50
2019-02-11T07:32:39.917Z,2.50
2019-02-11T07:35:08.302Z,2.40
2019-02-11T07:37:36.667Z,2.40
2019-02-11T07:40:08.255Z,2.30
2019-02-11T07:42:38.277Z,2.30
2019-02-11T07:45:10.621Z,2.30
2019-02-11T07:47:39.449Z,2.30
2019-02-11T07:50:07.821Z,2.40
2019-02-11T07:52:36.607Z,2.50
2019-02-11T07:55:05.770Z,2.70
2019-02-11T07:57:34.134Z,2.80
2019-02-11T08:00:02.527Z,2.90
2019-02-11T08:02:30.898Z,2.80
2019-02-11T08:04:59.284Z,2.80
2019-02-11T08:07:27.643Z,2.80
2019-02-11T08:09:55.936Z,3.10
2019-02-11T08:12:24.287Z,3.60
2019-02-11T08:14:52.913Z,4.10
2019-02-11T08:17:21.306Z,4.80
2019-02-11T08:19:49.573Z,5.70
2019-02-11T08:22:17.907Z,6.30
2019-02-11T08:24:46.223Z,6.90
2019-02-11T08:27:14.586Z,7.20
2019-02-11T08:29:42.992Z,7.30
2019-02-11T08:32:11.424Z,7.90
2019-02-11T08:34:39.719Z,8.60
2019-02-11T08:37:08.095Z,8.90
2019-02-11T08:39:36.429Z,9.70
2019-02-11T08:42:04.782Z,10.30
2019-02-11T08:44:33.669Z,10.70
2019-02-11T08:47:02.241Z,10.80
2019-02-11T08:49:30.631Z,10.70
2019-02-11T08:51:58.965Z,10.30
2019-02-11T08:54:27.321Z,10.50
2019-02-11T08:56:57.377Z,10.50
2019-02-11T08:59:25.888Z,10.80
2019-02-11T09:01:54.258Z,11.10
2019-02-11T09:04:23.000Z,11.50
2019-02-11T09:06:51.394Z,11.60
2019-02-11T09:09:19.849Z,11.60
2019-02-11T09:11:48.247Z,11.40
2019-02-11T09:14:16.695Z,11.70
2019-02-11T09:16:45.074Z,11.50
2019-02-11T09:19:13.756Z,11.10
2019-02-11T09:21:42.142Z,10.80
2019-02-11T09:24:10.508Z,10.20
2019-02-11T09:26:38.844Z,9.90
2019-02-11T09:29:07.224Z,9.20
2019-02-11T09:31:35.600Z,8.90
2019-02-11T09:34:04.010Z,8.20
2019-02-11T09:36:32.484Z,7.70
2019-02-11T09:39:01.164Z,7.50
2019-02-11T09:41:29.453Z,7.40
2019-02-11T09:43:57.844Z,7.30
2019-02-11T09:46:26.177Z,7.50
2019-02-11T09:48:54.543Z,8.00
2019-02-11T09:51:24.754Z,8.30
2019-02-11T09:53:53.120Z,8.50
2019-02-11T09:56:21.504Z,9.00
2019-02-11T09:58:49.891Z,9.60
2019-02-11T10:01:18.250Z,9.80
2019-02-11T10:03:46.529Z,9.60
2019-02-11T10:06:14.851Z,9.40
2019-02-11T10:08:43.194Z,9.20
2019-02-11T10:11:11.515Z,9.10
2019-02-11T10:13:39.868Z,8.90
2019-02-11T10:16:12.616Z,8.70
2019-02-11T10:18:38.275Z,8.50
2019-02-11T10:21:06.641Z,8.30
2019-02-11T10:23:35.004Z,8.10
2019-02-11T10:26:03.415Z,8.00
2019-02-11T10:28:31.722Z,7.80
2019-02-11T10:31:00.412Z,7.70
2019-02-11T10:33:28.787Z,7.60
2019-02-11T10:35:57.168Z,7.70
2019-02-11T10:38:25.546Z,7.90
2019-02-11T10:40:53.909Z,8.20
2019-02-11T10:43:22.297Z,8.20
2019-02-11T10:45:50.681Z,8.10
2019-02-11T10:48:19.089Z,8.00
2019-02-11T10:50:47.457Z,8.00
2019-02-11T10:53:16.209Z,8.00
2019-02-11T10:55:44.605Z,8.00
2019-02-11T10:58:12.970Z,8.20
2019-02-11T11:00:41.602Z,8.30
2019-02-11T11:03:09.932Z,8.30
2019-02-11T11:05:38.290Z,8.60
2019-02-11T11:08:06.964Z,9.00
2019-02-11T11:10:37.561Z,9.20
2019-02-11T11:13:05.954Z,9.40
2019-02-11T11:15:34.312Z,9.30
2019-02-11T11:18:02.697Z,9.20
2019-02-11T11:20:31.405Z,9.00
2019-02-11T11:22:59.774Z,9.40
2019-02-11T11:25:28.043Z,11.60
2019-02-11T11:27:56.329Z,13.90
2019-02-11T11:30:24.637Z,15.50
2019-02-11T11:32:52.975Z,16.70
2019-02-11T11:35:21.347Z,17.70
2019-02-11T11:37:49.733Z,18.10
2019-02-11T11:40:21.931Z,18.10
2019-02-11T11:42:50.576Z,17.90
2019-02-11T11:45:19.645Z,17.80
2019-02-11T11:47:47.983Z,17.50
2019-02-11T11:50:17.150Z,17.60
2019-02-11T11:52:45.781Z,17.10
2019-02-11T11:55:18.606Z,14.90
2019-02-11T11:57:47.006Z,13.70
2019-02-11T12:00:18.633Z,12.90
2019-02-11T12:03:00.259Z,12.50
2019-02-11T12:05:17.145Z,12.30
2019-02-11T12:07:45.619Z,11.50
2019-02-11T12:10:13.983Z,10.90
2019-02-11T12:12:42.356Z,10.30
2019-02-11T12:15:12.996Z,11.10
2019-02-11T12:17:41.801Z,11.60
2019-02-11T12:20:12.162Z,14.00
2019-02-11T12:22:40.526Z,14.30
2019-02-11T12:25:11.270Z,15.50
2019-02-11T12:27:39.723Z,15.50
2019-02-11T12:30:14.066Z,15.70
2019-02-11T12:32:42.484Z,16.30
2019-02-11T12:35:12.800Z,16.60
2019-02-11T12:37:41.169Z,15.50
2019-02-11T12:40:11.214Z,13.70
2019-02-11T12:42:39.590Z,13.20
2019-02-11T12:45:11.311Z,11.80
2019-02-11T12:47:39.676Z,12.60
2019-02-11T12:50:13.166Z,13.70
2019-02-11T12:52:41.498Z,13.10
2019-02-11T12:55:15.030Z,12.10
2019-02-11T12:57:43.429Z,11.40
2019-02-11T13:00:17.013Z,10.60
2019-02-11T13:02:44.547Z,10.20
2019-02-11T13:05:12.980Z,10.00
2019-02-11T13:07:41.363Z,9.80
2019-02-11T13:10:13.430Z,9.50
2019-02-11T13:12:41.808Z,9.20
2019-02-11T13:15:11.852Z,9.40
2019-02-11T13:17:40.565Z,10.40
2019-02-11T13:20:12.063Z,11.00
2019-02-11T13:22:40.784Z,10.60
2019-02-11T13:25:17.301Z,10.00
2019-02-11T13:27:45.662Z,11.10
2019-02-11T13:30:24.495Z,13.70
2019-02-11T13:32:52.881Z,15.10
2019-02-11T13:35:21.254Z,15.70
2019-02-11T13:37:54.312Z,16.80
2019-02-11T13:40:19.973Z,17.40
2019-02-11T13:42:48.348Z,17.40
2019-02-11T13:45:21.097Z,16.40
2019-02-11T13:47:54.661Z,14.90
2019-02-11T13:50:24.633Z,14.60
2019-02-11T13:52:53.078Z,15.30
2019-02-11T13:55:21.593Z,13.80
2019-02-11T13:57:49.976Z,13.70
2019-02-11T14:00:27.539Z,13.70
2019-02-11T14:02:58.545Z,12.80
2019-02-11T14:05:27.866Z,11.40
2019-02-11T14:07:56.517Z,10.50
2019-02-11T14:10:24.876Z,9.90
2019-02-11T14:12:53.268Z,9.80
2019-02-11T14:15:21.819Z,11.40
2019-02-11T14:17:50.175Z,12.00
2019-02-11T14:20:21.348Z,12.20
2019-02-11T14:22:49.671Z,11.10
2019-02-11T14:25:18.031Z,10.10
2019-02-11T14:27:46.430Z,9.50
2019-02-11T14:30:19.953Z,9.20
2019-02-11T14:32:48.366Z,8.90
2019-02-11T14:35:17.693Z,8.70
2019-02-11T14:37:46.040Z,8.90
2019-02-11T14:40:14.897Z,9.00
2019-02-11T14:42:43.354Z,9.00
2019-02-11T14:45:17.167Z,8.90
2019-02-11T14:47:45.561Z,8.80
2019-02-11T14:50:13.919Z,8.70
2019-02-11T14:52:42.314Z,8.60
2019-02-11T14:55:11.114Z,8.60
2019-02-11T14:57:39.460Z,8.60
2019-02-11T15:00:20.019Z,8.50
2019-02-11T15:02:48.397Z,8.40
2019-02-11T15:05:17.224Z,8.40
2019-02-11T15:07:45.600Z,8.40
2019-02-11T15:10:14.449Z,8.30
2019-02-11T15:12:42.814Z,8.20
2019-02-11T15:15:12.219Z,8.20
2019-02-11T15:17:43.026Z,8.10
2019-02-11T15:20:13.040Z,8.10
2019-02-11T15:22:41.401Z,8.20
2019-02-11T15:25:12.041Z,8.40
2019-02-11T15:27:40.378Z,8.60
2019-02-11T15:30:11.580Z,8.80
2019-02-11T15:32:39.950Z,8.80
2019-02-11T15:35:09.090Z,8.90
2019-02-11T15:37:37.451Z,8.80
2019-02-11T15:40:14.679Z,8.70
2019-02-11T15:42:43.048Z,8.50
2019-02-11T15:45:13.284Z,8.40
2019-02-11T15:47:41.658Z,8.20
2019-02-11T15:50:12.764Z,8.20
2019-02-11T15:52:41.162Z,8.10
2019-02-11T15:55:20.617Z,8.10
2019-02-11T15:57:48.932Z,8.20
2019-02-11T16:00:19.959Z,8.30
2019-02-11T16:02:48.323Z,8.40
2019-02-11T16:05:16.997Z,8.40
2019-02-11T16:07:45.591Z,8.30
2019-02-11T16:10:16.228Z,8.30
2019-02-11T16:12:44.602Z,8.20
2019-02-11T16:15:12.977Z,8.10
2019-02-11T16:17:41.361Z,8.00
2019-02-11T16:20:14.956Z,7.90
2019-02-11T16:22:43.488Z,7.90
2019-02-11T16:25:13.702Z,7.80
2019-02-11T16:27:42.072Z,7.80
2019-02-11T16:30:12.904Z,7.70
2019-02-11T16:32:41.288Z,7.60
2019-02-11T16:35:11.429Z,7.60
2019-02-11T16:37:39.799Z,7.50
2019-02-11T16:40:11.477Z,7.40
2019-02-11T16:42:39.867Z,7.20
2019-02-11T16:45:10.283Z,7.10
2019-02-11T16:47:38.678Z,7.00
2019-02-11T16:50:09.682Z,6.90
2019-02-11T16:52:38.075Z,6.90
2019-02-11T16:55:08.861Z,6.80
2019-02-11T16:57:37.197Z,6.70
2019-02-11T17:00:14.750Z,6.70
2019-02-11T17:02:43.112Z,6.60
2019-02-11T17:05:12.027Z,6.50
2019-02-11T17:07:41.932Z,6.30
2019-02-11T17:10:12.153Z,6.20
2019-02-11T17:12:40.551Z,6.10
2019-02-11T17:15:11.262Z,6.10
2019-02-11T17:17:39.653Z,6.20
2019-02-11T17:20:10.165Z,6.20
2019-02-11T17:22:38.542Z,6.30
2019-02-11T17:25:09.074Z,6.20
2019-02-11T17:27:37.327Z,6.10
2019-02-11T17:30:11.471Z,5.90
2019-02-11T17:32:39.792Z,5.80
2019-02-11T17:35:10.073Z,5.60
2019-02-11T17:37:38.853Z,5.50
2019-02-11T17:40:12.908Z,5.30
2019-02-11T17:42:41.303Z,5.20
2019-02-11T17:45:12.948Z,5.10
2019-02-11T17:47:41.315Z,5.00
2019-02-11T17:50:10.840Z,4.90
2019-02-11T17:52:39.197Z,4.90
2019-02-11T17:55:12.368Z,4.80
2019-02-11T17:57:40.746Z,4.80
2019-02-11T18:00:13.993Z,4.70
2019-02-11T18:02:42.330Z,4.70
2019-02-11T18:05:10.769Z,4.70
2019-02-11T18:07:39.157Z,4.60
2019-02-11T18:10:07.518Z,4.70
2019-02-11T18:12:35.929Z,4.70
2019-02-11T18:15:05.296Z,4.70
2019-02-11T18:17:33.636Z,4.70
2019-02-11T18:20:02.025Z,4.70
2019-02-11T18:22:30.527Z,4.70
2019-02-11T18:24:58.872Z,4.70
2019-02-11T18:27:27.642Z,4.70
2019-02-11T18:29:56.007Z,4.70
2019-02-11T18:32:24.397Z,4.70
2019-02-11T18:34:52.694Z,4.70
2019-02-11T18:37:21.113Z,4.70
2019-02-11T18:39:49.470Z,4.70
2019-02-11T18:42:17.792Z,4.70
2019-02-11T18:44:46.159Z,4.70
2019-02-11T18:47:14.530Z,4.60
2019-02-11T18:49:42.900Z,4.60
2019-02-11T18:52:11.279Z,4.60
2019-02-11T18:54:39.727Z,4.60
2019-02-11T18:57:08.093Z,4.60
2019-02-11T18:59:36.462Z,4.60
2019-02-11T19:02:04.835Z,4.60
2019-02-11T19:04:33.215Z,4.50
2019-02-11T19:07:01.621Z,4.50
2019-02-11T19:09:29.935Z,4.50
2019-02-11T19:11:58.300Z,4.40
2019-02-11T19:14:26.646Z,4.40
2019-02-11T19:16:54.966Z,4.30
2019-02-11T19:19:23.698Z,4.30
2019-02-11T19:21:52.077Z,4.20
2019-02-11T19:24:20.375Z,4.20
2019-02-11T19:26:48.700Z,4.10
2019-02-11T19:29:17.117Z,4.10
2019-02-11T19:31:45.514Z,4.10
2019-02-11T19:34:13.879Z,4.00
2019-02-11T19:36:42.255Z,4.00
2019-02-11T19:39:10.849Z,3.80
2019-02-11T19:41:39.297Z,3.80
2019-02-11T19:44:07.659Z,3.70
2019-02-11T19:46:35.994Z,3.60
2019-02-11T19:49:04.289Z,3.50
2019-02-11T19:51:32.758Z,3.50
2019-02-11T19:54:01.466Z,3.40
2019-02-11T19:56:29.869Z,3.30
2019-02-11T19:58:58.232Z,3.20
2019-02-11T20:01:26.645Z,3.20
2019-02-11T20:03:54.999Z,3.20
2019-02-11T20:06:23.753Z,3.10
2019-02-11T20:08:52.152Z,3.10
2019-02-11T20:11:20.594Z,3.00
2019-02-11T20:13:48.975Z,2.90
2019-02-11T20:16:17.353Z,2.90
2019-02-11T20:18:45.730Z,2.90
2019-02-11T20:21:14.126Z,2.80
2019-02-11T20:23:42.494Z,2.70
2019-02-11T20:26:10.917Z,2.70
2019-02-11T20:28:39.326Z,2.70
2019-02-11T20:31:07.642Z,2.60
2019-02-11T20:33:36.030Z,2.50
2019-02-11T20:36:04.393Z,2.40
2019-02-11T20:38:32.805Z,2.30
2019-02-11T20:41:01.180Z,2.40
2019-02-11T20:43:29.549Z,2.50
2019-02-11T20:45:57.934Z,2.50
2019-02-11T20:48:26.318Z,2.40
2019-02-11T20:50:54.593Z,2.50
2019-02-11T20:53:22.925Z,2.40
2019-02-11T20:55:51.234Z,2.40
2019-02-11T20:58:19.571Z,2.40
2019-02-11T21:00:47.923Z,2.30
2019-02-11T21:03:16.237Z,2.40
2019-02-11T21:05:44.531Z,2.40
2019-02-11T21:08:12.893Z,2.40
2019-02-11T21:10:41.287Z,2.30
2019-02-11T21:13:09.648Z,2.20
2019-02-11T21:15:38.062Z,2.20
2019-02-11T21:18:06.434Z,2.10
2019-02-11T21:20:38.207Z,2.10
2019-02-11T21:23:08.297Z,2.00
2019-02-11T21:25:36.785Z,2.00
2019-02-11T21:28:05.157Z,2.10
2019-02-11T21:30:33.533Z,2.20
2019-02-11T21:33:02.390Z,2.40
2019-02-11T21:35:30.714Z,2.40
2019-02-11T21:37:59.113Z,2.40
2019-02-11T21:40:27.828Z,2.50
2019-02-11T21:42:56.190Z,2.60
2019-02-11T21:45:24.487Z,2.50
2019-02-11T21:47:52.854Z,2.40
2019-02-11T21:50:26.790Z,2.30
2019-02-11T21:52:51.773Z,2.20
2019-02-11T21:55:22.090Z,2.10
2019-02-11T21:57:50.484Z,2.00
2019-02-11T22:00:21.154Z,2.00
2019-02-11T22:02:49.451Z,2.20
2019-02-11T22:05:17.778Z,2.20
2019-02-11T22:07:46.149Z,2.30
2019-02-11T22:10:19.455Z,2.40
2019-02-11T22:12:47.844Z,2.40
2019-02-11T22:15:16.246Z,2.50
2019-02-11T22:17:44.538Z,2.50
2019-02-11T22:20:16.178Z,2.60
2019-02-11T22:22:44.747Z,2.60
2019-02-11T22:25:13.675Z,2.60
2019-02-11T22:27:42.050Z,2.70
2019-02-11T22:30:16.739Z,2.70
2019-02-11T22:32:45.122Z,2.70
2019-02-11T22:35:13.484Z,2.60
2019-02-11T22:37:41.888Z,2.60
2019-02-11T22:40:12.316Z,2.60
2019-02-11T22:42:40.696Z,2.50
2019-02-11T22:45:12.064Z,2.50
2019-02-11T22:47:40.790Z,2.40
2019-02-11T22:50:11.594Z,2.50
2019-02-11T22:52:39.989Z,2.50
2019-02-11T22:55:12.857Z,2.50
2019-02-11T22:57:41.570Z,2.40
2019-02-11T23:00:26.493Z,2.40
2019-02-11T23:02:54.898Z,2.40
2019-02-11T23:05:23.207Z,2.30
2019-02-11T23:07:51.584Z,2.30
2019-02-11T23:10:19.998Z,2.20
2019-02-11T23:12:48.375Z,2.10
2019-02-11T23:15:16.736Z,1.90
2019-02-11T23:17:45.056Z,1.80
2019-02-11T23:20:13.433Z,2.00
2019-02-11T23:22:41.859Z,2.20
2019-02-11T23:25:10.509Z,2.20
2019-02-11T23:27:38.885Z,2.10
2019-02-11T23:30:13.465Z,1.90
2019-02-11T23:32:38.349Z,1.80
2019-02-11T23:35:06.787Z,1.60
2019-02-11T23:37:35.528Z,1.40
2019-02-11T23:40:05.957Z,1.20
2019-02-11T23:42:34.639Z,1.00
2019-02-11T23:45:03.088Z,0.90
2019-02-11T23:47:31.484Z,0.70
2019-02-11T23:49:59.860Z,0.70
2019-02-11T23:52:28.269Z,0.80
2019-02-11T23:54:56.646Z,1.00
2019-02-11T23:57:24.997Z,1.10
2019-02-11T23:59:53.788Z,1.00
